Time;durP1;ratioP1;P1;durP2;ratioP2;P2;SDS_P1;SDS_P2;PMS_P1;PMS_P2;Temp;Humidity;BMP_temperature;BMP_pressure;BME280_temperature;BME280_humidity;BME280_pressure;Samples;Min_cycle;Max_cycle;Signal;HPM_P1;HPM_P2
2023/01/17 00:00:00;;;;;;;9.88;7.32;;;;;;;;;;5065899;28;20039;-65
2023/01/17 00:02:27;;;;;;;10.35;7.90;;;;;;;;;;5047002;28;20150;-66
2023/01/17 00:10:21;;;;;;;9.73;7.82;;;;;;;;;;5049701;28;20097;-62
2023/01/17 00:12:50;;;;;;;8.73;7.25;;;;;;;;;;5036633;28;20025;-62
2023/01/17 00:15:18;;;;;;;11.48;8.75;;;;;;;;;;5047699;28;20167;-67
2023/01/17 00:17:43;;;;;;;9.00;7.35;;;;;;;;;;5047209;28;20029;-64
2023/01/17 01:34:51;;;;;;;9.68;7.35;;;;;;;;;;5061099;28;20101;-63
2023/01/17 01:37:17;;;;;;;10.53;7.60;;;;;;;;;;5039128;28;20048;-61
2023/01/17 01:39:42;;;;;;;10.03;7.57;;;;;;;;;;5066021;28;20306;-69
2023/01/17 01:42:09;;;;;;;8.90;7.37;;;;;;;;;;5046005;28;20302;-66
2023/01/17 01:44:53;;;;;;;9.20;7.43;;;;;;;;;;5043864;28;20472;-66
2023/01/17 01:47:24;;;;;;;9.77;7.53;;;;;;;;;;5038978;28;20040;-68
2023/01/17 01:49:50;;;;;;;10.15;7.82;;;;;;;;;;5066250;28;20037;-61
2023/01/17 01:52:15;;;;;;;9.40;7.40;;;;;;;;;;5067331;28;20060;-62
2023/01/17 01:54:42;;;;;;;8.87;7.43;;;;;;;;;;5049015;28;20045;-65
2023/01/17 01:57:07;;;;;;;9.32;7.45;;;;;;;;;;5052831;28;20289;-66
2023/01/17 01:59:33;;;;;;;9.98;7.78;;;;;;;;;;5050266;28;20142;-66
2023/01/17 02:01:58;;;;;;;9.30;7.65;;;;;;;;;;5065836;28;20032;-70
2023/01/17 02:04:23;;;;;;;9.73;7.10;;;;;;;;;;5065688;28;20097;-62
2023/01/17 02:06:50;;;;;;;9.75;7.68;;;;;;;;;;5051084;28;20671;-62
2023/01/17 02:09:16;;;;;;;9.45;7.20;;;;;;;;;;5077777;28;20512;-65
2023/01/17 02:11:41;;;;;;;9.27;7.80;;;;;;;;;;5049034;28;20039;-64
2023/01/17 02:14:07;;;;;;;9.63;7.73;;;;;;;;;;5028612;28;20053;-67
2023/01/17 02:16:36;;;;;;;9.20;7.53;;;;;;;;;;5052803;28;20286;-67
2023/01/17 02:19:04;;;;;;;9.77;7.55;;;;;;;;;;5076524;28;20044;-64
2023/01/17 02:21:29;;;;;;;10.65;8.32;;;;;;;;;;5067143;28;20036;-61
2023/01/17 02:24:13;;;;;;;9.17;7.07;;;;;;;;;;5066638;28;20361;-65
2023/01/17 02:26:47;;;;;;;9.27;7.18;;;;;;;;;;5066336;28;20279;-67
2023/01/17 02:29:12;;;;;;;8.80;7.10;;;;;;;;;;5048651;28;20049;-60
2023/01/17 02:31:40;;;;;;;9.68;7.72;;;;;;;;;;5048500;28;20098;-63
2023/01/17 02:34:09;;;;;;;8.60;7.30;;;;;;;;;;5035230;28;20064;-66
2023/01/17 02:36:35;;;;;;;9.10;7.32;;;;;;;;;;5066355;28;20111;-61
2023/01/17 02:39:04;;;;;;;8.38;6.93;;;;;;;;;;5060617;28;20115;-62
2023/01/17 02:41:30;;;;;;;9.55;7.72;;;;;;;;;;5031618;28;20029;-60
2023/01/17 02:43:55;;;;;;;9.60;7.72;;;;;;;;;;5045560;28;20035;-62
2023/01/17 02:46:20;;;;;;;10.40;7.60;;;;;;;;;;5063786;28;20508;-63
2023/01/17 02:48:46;;;;;;;8.65;7.22;;;;;;;;;;5066099;28;20147;-65
2023/01/17 02:51:25;;;;;;;9.43;7.33;;;;;;;;;;5047070;28;20472;-56
2023/01/17 02:53:56;;;;;;;9.70;7.40;;;;;;;;;;5033966;28;20106;-62
2023/01/17 02:56:24;;;;;;;8.73;7.10;;;;;;;;;;5065542;28;20282;-64
2023/01/17 02:59:08;;;;;;;9.15;7.57;;;;;;;;;;5072990;28;20032;-60
2023/01/17 03:01:34;;;;;;;8.50;7.05;;;;;;;;;;5064731;28;20039;-65
2023/01/17 03:04:01;;;;;;;9.07;7.13;;;;;;;;;;5066250;28;20048;-67
2023/01/17 03:06:29;;;;;;;9.25;7.22;;;;;;;;;;5064873;28;20492;-61
2023/01/17 03:08:55;;;;;;;9.25;7.15;;;;;;;;;;5026866;28;20516;-64
2023/01/17 03:11:20;;;;;;;8.47;6.90;;;;;;;;;;5065191;28;20040;-61
2023/01/17 03:13:45;;;;;;;8.80;7.22;;;;;;;;;;5063624;28;20798;-59
2023/01/17 03:16:12;;;;;;;8.90;7.50;;;;;;;;;;5065155;28;20480;-64
2023/01/17 03:18:37;;;;;;;9.00;7.15;;;;;;;;;;5047471;28;20336;-66
2023/01/17 03:21:02;;;;;;;8.93;7.00;;;;;;;;;;5031125;28;20032;-63
2023/01/17 03:23:27;;;;;;;9.10;7.57;;;;;;;;;;5066042;28;20040;-66
2023/01/17 03:25:53;;;;;;;8.00;6.80;;;;;;;;;;5030172;28;20028;-67
2023/01/17 03:28:18;;;;;;;8.83;7.17;;;;;;;;;;5045879;28;20159;-66
2023/01/17 03:30:43;;;;;;;8.97;7.03;;;;;;;;;;5075979;28;20701;-67
2023/01/17 03:33:08;;;;;;;8.73;7.00;;;;;;;;;;5047181;28;20782;-65
2023/01/17 03:35:34;;;;;;;9.23;6.85;;;;;;;;;;5047084;28;20106;-67
2023/01/17 03:37:59;;;;;;;8.30;7.03;;;;;;;;;;5059326;28;20114;-67
2023/01/17 03:40:24;;;;;;;8.75;7.03;;;;;;;;;;5025969;28;20982;-62
2023/01/17 03:42:50;;;;;;;8.52;6.38;;;;;;;;;;5060767;28;20064;-67
2023/01/17 03:45:15;;;;;;;8.95;7.05;;;;;;;;;;5049056;28;20453;-63
2023/01/17 03:47:40;;;;;;;8.90;7.03;;;;;;;;;;5078897;28;20052;-58
2023/01/17 03:50:06;;;;;;;9.00;7.53;;;;;;;;;;5055366;28;20035;-64
2023/01/17 03:52:31;;;;;;;8.50;6.85;;;;;;;;;;5047468;28;20279;-65
2023/01/17 03:54:56;;;;;;;8.63;7.23;;;;;;;;;;5043266;28;20053;-63
2023/01/17 03:57:22;;;;;;;8.60;6.90;;;;;;;;;;5045614;28;20305;-65
2023/01/17 03:59:47;;;;;;;7.67;6.37;;;;;;;;;;5043947;28;20033;-64
2023/01/17 04:02:12;;;;;;;8.32;7.03;;;;;;;;;;5044745;28;20786;-65
2023/01/17 04:04:37;;;;;;;8.40;6.60;;;;;;;;;;5045912;28;20147;-67
2023/01/17 04:07:03;;;;;;;7.87;6.10;;;;;;;;;;5044948;28;20656;-68
2023/01/17 04:09:32;;;;;;;8.40;6.63;;;;;;;;;;5059952;28;20288;-65
2023/01/17 04:11:58;;;;;;;8.05;6.97;;;;;;;;;;5044952;28;20400;-66
2023/01/17 04:14:23;;;;;;;8.38;6.47;;;;;;;;;;5049555;28;20045;-68
2023/01/17 04:16:48;;;;;;;8.65;6.80;;;;;;;;;;5048987;28;20119;-61
2023/01/17 04:19:13;;;;;;;8.17;6.27;;;;;;;;;;5048692;28;20067;-63
2023/01/17 04:21:39;;;;;;;7.33;6.40;;;;;;;;;;5043758;28;20272;-67
2023/01/17 04:24:04;;;;;;;8.63;6.43;;;;;;;;;;5046873;28;20881;-63
2023/01/17 04:26:29;;;;;;;8.07;6.53;;;;;;;;;;5048392;28;20361;-62
2023/01/17 04:28:55;;;;;;;9.20;7.10;;;;;;;;;;5049563;28;20139;-65
2023/01/17 04:31:20;;;;;;;8.40;6.65;;;;;;;;;;5029153;28;20757;-62
2023/01/17 04:33:45;;;;;;;9.20;7.10;;;;;;;;;;5048093;28;20053;-62
2023/01/17 04:36:10;;;;;;;7.65;6.43;;;;;;;;;;5048095;28;20306;-60
2023/01/17 04:38:35;;;;;;;8.67;6.60;;;;;;;;;;5061901;28;20074;-63
2023/01/17 04:41:01;;;;;;;8.37;6.53;;;;;;;;;;5046677;28;20341;-61
2023/01/17 04:43:26;;;;;;;9.30;6.90;;;;;;;;;;5047558;28;20298;-62
2023/01/17 04:45:55;;;;;;;8.60;6.20;;;;;;;;;;5051405;28;20667;-64
2023/01/17 04:48:20;;;;;;;7.13;6.00;;;;;;;;;;5046429;28;20265;-64
2023/01/17 04:50:45;;;;;;;7.35;6.30;;;;;;;;;;5046858;28;20094;-62
2023/01/17 04:53:10;;;;;;;7.50;6.20;;;;;;;;;;5046752;28;20421;-64
2023/01/17 04:55:36;;;;;;;8.13;6.77;;;;;;;;;;5041897;28;20484;-67
2023/01/17 04:58:01;;;;;;;8.80;6.53;;;;;;;;;;5040693;28;20302;-61
2023/01/17 05:00:26;;;;;;;8.55;6.68;;;;;;;;;;5048827;28;20325;-63
2023/01/17 05:02:51;;;;;;;7.75;6.32;;;;;;;;;;5048977;28;20188;-65
2023/01/17 05:05:17;;;;;;;8.43;6.43;;;;;;;;;;5050441;28;20141;-63
2023/01/17 05:07:42;;;;;;;8.48;6.70;;;;;;;;;;5046097;28;20303;-62
2023/01/17 05:10:08;;;;;;;8.30;5.80;;;;;;;;;;5043393;28;20729;-63
2023/01/17 05:12:33;;;;;;;8.02;6.22;;;;;;;;;;5041317;28;20591;-64
2023/01/17 05:14:58;;;;;;;7.63;6.07;;;;;;;;;;5052102;28;20802;-61
2023/01/17 05:17:24;;;;;;;8.37;6.60;;;;;;;;;;5062186;28;20043;-62
2023/01/17 05:19:49;;;;;;;7.15;6.00;;;;;;;;;;5042673;28;20272;-61
2023/01/17 05:22:14;;;;;;;7.25;5.97;;;;;;;;;;5039952;28;20072;-64
2023/01/17 05:24:40;;;;;;;8.27;5.35;;;;;;;;;;5055280;28;20095;-65
2023/01/17 05:27:06;;;;;;;6.82;5.70;;;;;;;;;;5044750;28;20038;-61
2023/01/17 05:29:31;;;;;;;7.32;5.78;;;;;;;;;;5044685;28;20045;-63
2023/01/17 05:31:56;;;;;;;6.97;6.00;;;;;;;;;;5019606;28;20481;-61
2023/01/17 05:34:21;;;;;;;8.23;6.27;;;;;;;;;;5044447;28;20421;-57
2023/01/17 05:36:47;;;;;;;7.13;5.55;;;;;;;;;;5017003;28;20339;-60
2023/01/17 05:39:12;;;;;;;6.25;5.22;;;;;;;;;;5042270;28;20511;-67
2023/01/17 05:41:37;;;;;;;6.88;5.57;;;;;;;;;;5038622;28;20068;-60
2023/01/17 05:44:03;;;;;;;6.50;5.53;;;;;;;;;;5044828;28;20540;-66
2023/01/17 05:46:28;;;;;;;6.13;5.25;;;;;;;;;;5043564;28;20268;-65
2023/01/17 05:48:54;;;;;;;6.60;5.55;;;;;;;;;;5041394;28;20037;-66
2023/01/17 05:51:19;;;;;;;6.83;5.73;;;;;;;;;;5028670;28;20166;-67
2023/01/17 05:53:44;;;;;;;6.27;5.27;;;;;;;;;;5035831;28;20723;-67
2023/01/17 05:56:09;;;;;;;6.87;5.40;;;;;;;;;;5053322;28;20041;-60
2023/01/17 05:58:35;;;;;;;7.07;5.80;;;;;;;;;;5050828;28;20820;-70
2023/01/17 06:01:00;;;;;;;7.50;5.18;;;;;;;;;;5035841;28;20025;-62
2023/01/17 06:03:25;;;;;;;6.13;5.07;;;;;;;;;;5052365;28;20044;-65
2023/01/17 06:05:50;;;;;;;6.22;4.88;;;;;;;;;;5039484;28;20290;-61
2023/01/17 06:08:16;;;;;;;6.97;5.47;;;;;;;;;;5044498;28;20065;-65
2023/01/17 06:10:41;;;;;;;8.00;6.07;;;;;;;;;;5032676;28;20036;-65
2023/01/17 06:13:11;;;;;;;5.70;4.97;;;;;;;;;;5060521;28;20289;-58
2023/01/17 06:15:36;;;;;;;6.93;5.20;;;;;;;;;;5060179;28;20752;-61
2023/01/17 06:18:08;;;;;;;5.97;5.07;;;;;;;;;;5017696;28;20125;-64
2023/01/17 06:20:34;;;;;;;6.07;4.93;;;;;;;;;;5057392;28;20044;-64
2023/01/17 06:23:01;;;;;;;6.18;5.28;;;;;;;;;;5051324;28;20122;-64
2023/01/17 06:25:26;;;;;;;6.60;5.13;;;;;;;;;;5036784;28;20131;-62
2023/01/17 06:27:53;;;;;;;9.70;5.07;;;;;;;;;;5039305;28;20472;-66
2023/01/17 06:30:18;;;;;;;7.55;4.97;;;;;;;;;;5048147;28;20277;-62
2023/01/17 06:32:44;;;;;;;7.10;4.60;;;;;;;;;;5060697;28;20171;-68
2023/01/17 06:35:09;;;;;;;6.70;4.90;;;;;;;;;;5048446;28;20397;-64
2023/01/17 06:37:34;;;;;;;5.88;4.78;;;;;;;;;;5059795;28;20322;-65
2023/01/17 06:40:00;;;;;;;6.47;4.53;;;;;;;;;;5027140;28;20311;-62
2023/01/17 06:42:25;;;;;;;5.95;4.55;;;;;;;;;;5060730;28;20087;-64
2023/01/17 06:44:50;;;;;;;7.70;4.80;;;;;;;;;;5046425;28;20090;-66
2023/01/17 06:47:15;;;;;;;7.17;4.43;;;;;;;;;;5047100;28;20280;-66
2023/01/17 06:49:41;;;;;;;5.70;4.57;;;;;;;;;;5059206;28;20314;-64
2023/01/17 06:52:06;;;;;;;7.10;5.17;;;;;;;;;;5046807;28;20275;-63
2023/01/17 06:54:31;;;;;;;6.13;4.50;;;;;;;;;;5034429;28;20326;-61
2023/01/17 06:56:56;;;;;;;6.22;4.53;;;;;;;;;;5035780;28;20288;-64
2023/01/17 06:59:22;;;;;;;6.50;4.63;;;;;;;;;;5058595;28;20048;-69
2023/01/17 07:01:47;;;;;;;7.23;4.90;;;;;;;;;;5062053;28;20331;-69
2023/01/17 07:04:12;;;;;;;6.18;4.72;;;;;;;;;;5054671;28;20716;-61
2023/01/17 07:06:38;;;;;;;5.93;4.20;;;;;;;;;;5060114;28;20638;-59
2023/01/17 07:09:03;;;;;;;6.05;4.30;;;;;;;;;;5040341;28;20029;-60
2023/01/17 07:11:28;;;;;;;5.72;4.60;;;;;;;;;;5043329;28;20020;-65
2023/01/17 07:13:53;;;;;;;5.93;4.60;;;;;;;;;;5049673;28;20029;-57
2023/01/17 07:16:19;;;;;;;5.87;4.30;;;;;;;;;;5047100;28;20346;-64
2023/01/17 07:18:44;;;;;;;9.90;6.35;;;;;;;;;;5041757;28;20374;-67
2023/01/17 07:21:13;;;;;;;7.73;4.80;;;;;;;;;;5060762;28;20067;-68
2023/01/17 07:23:38;;;;;;;6.15;4.38;;;;;;;;;;5033548;28;20107;-65
2023/01/17 07:26:03;;;;;;;5.40;4.10;;;;;;;;;;5064950;28;20119;-67
2023/01/17 07:28:29;;;;;;;6.10;4.10;;;;;;;;;;5028965;28;20370;-66
2023/01/17 07:30:54;;;;;;;5.53;4.07;;;;;;;;;;5046299;28;20020;-62
2023/01/17 07:33:19;;;;;;;5.20;4.40;;;;;;;;;;5038958;28;20850;-61
2023/01/17 07:35:44;;;;;;;9.33;5.13;;;;;;;;;;5012730;28;20588;-61
2023/01/17 07:38:16;;;;;;;7.30;4.13;;;;;;;;;;5023531;28;20289;-62
2023/01/17 07:40:42;;;;;;;6.72;4.30;;;;;;;;;;5052551;28;20409;-61
2023/01/17 07:43:13;;;;;;;5.82;3.90;;;;;;;;;;5054872;28;20032;-62
2023/01/17 07:45:45;;;;;;;6.57;4.35;;;;;;;;;;5031687;28;20386;-67
2023/01/17 07:48:10;;;;;;;6.13;4.15;;;;;;;;;;5063763;28;20059;-64
2023/01/17 07:50:35;;;;;;;5.13;4.00;;;;;;;;;;5047105;28;20024;-63
2023/01/17 07:53:01;;;;;;;5.73;4.33;;;;;;;;;;5067089;28;20072;-64
2023/01/17 07:55:26;;;;;;;7.30;4.50;;;;;;;;;;5054061;28;21179;-67
2023/01/17 07:57:51;;;;;;;5.63;4.00;;;;;;;;;;5070841;28;20356;-63
2023/01/17 08:00:17;;;;;;;7.03;4.33;;;;;;;;;;5069416;28;20279;-66
2023/01/17 08:02:42;;;;;;;5.20;3.88;;;;;;;;;;5049089;28;20344;-67
2023/01/17 08:05:07;;;;;;;6.17;4.00;;;;;;;;;;5029289;28;20451;-58
2023/01/17 08:07:33;;;;;;;4.75;3.65;;;;;;;;;;5035693;28;20321;-64
2023/01/17 08:09:59;;;;;;;5.13;4.00;;;;;;;;;;5040072;28;20123;-63
2023/01/17 08:12:24;;;;;;;4.85;3.65;;;;;;;;;;5063201;28;20724;-60
2023/01/17 08:14:50;;;;;;;5.57;4.03;;;;;;;;;;5024771;28;20043;-63
2023/01/17 08:17:15;;;;;;;5.90;4.00;;;;;;;;;;5038424;28;20040;-63
2023/01/17 08:19:41;;;;;;;6.53;3.55;;;;;;;;;;5068158;28;20097;-59
2023/01/17 08:22:06;;;;;;;6.22;3.70;;;;;;;;;;5063988;28;20040;-65
2023/01/17 08:24:32;;;;;;;6.45;3.60;;;;;;;;;;5068902;28;20033;-60
2023/01/17 08:26:57;;;;;;;5.45;3.70;;;;;;;;;;5061545;28;20522;-63
2023/01/17 08:29:22;;;;;;;6.53;4.10;;;;;;;;;;5048202;28;20161;-68
2023/01/17 08:31:48;;;;;;;4.88;3.75;;;;;;;;;;5063009;28;20259;-59
2023/01/17 08:34:13;;;;;;;6.10;3.70;;;;;;;;;;5058655;28;20024;-65
2023/01/17 08:36:38;;;;;;;5.63;3.67;;;;;;;;;;5065430;28;20039;-66
2023/01/17 08:39:04;;;;;;;6.97;3.75;;;;;;;;;;5064168;28;20036;-65
2023/01/17 08:41:31;;;;;;;6.32;4.18;;;;;;;;;;5056249;28;20029;-65
2023/01/17 08:43:56;;;;;;;7.20;3.90;;;;;;;;;;5058609;28;20033;-67
2023/01/17 08:46:21;;;;;;;7.43;3.83;;;;;;;;;;5058243;28;20461;-61
2023/01/17 08:48:47;;;;;;;6.85;3.90;;;;;;;;;;5069654;28;20360;-68
2023/01/17 08:51:12;;;;;;;6.37;3.47;;;;;;;;;;5062134;28;20060;-68
2023/01/17 08:53:37;;;;;;;7.30;4.20;;;;;;;;;;5057538;28;20299;-66
2023/01/17 08:56:03;;;;;;;9.20;4.53;;;;;;;;;;5049825;28;20352;-74
2023/01/17 08:58:28;;;;;;;6.30;3.83;;;;;;;;;;5046192;28;20490;-70
2023/01/17 09:00:54;;;;;;;5.47;4.03;;;;;;;;;;5059574;28;20021;-64
2023/01/17 09:03:19;;;;;;;7.30;3.70;;;;;;;;;;5042715;28;20041;-66
2023/01/17 09:05:44;;;;;;;5.50;3.75;;;;;;;;;;5049725;28;20425;-69
2023/01/17 09:08:10;;;;;;;5.17;3.33;;;;;;;;;;5030706;28;20041;-65
2023/01/17 09:10:35;;;;;;;8.37;4.00;;;;;;;;;;5057195;28;20791;-71
2023/01/17 09:13:00;;;;;;;5.63;3.25;;;;;;;;;;5052992;28;20466;-69
2023/01/17 09:15:26;;;;;;;5.45;3.53;;;;;;;;;;5045797;28;20127;-62
2023/01/17 09:17:54;;;;;;;7.72;4.45;;;;;;;;;;5073764;28;20035;-63
2023/01/17 09:20:19;;;;;;;6.40;3.55;;;;;;;;;;5054291;28;20036;-65
2023/01/17 09:22:44;;;;;;;6.15;3.78;;;;;;;;;;5071491;28;20599;-65
2023/01/17 09:25:09;;;;;;;5.13;3.70;;;;;;;;;;5056720;28;20021;-64
2023/01/17 09:27:35;;;;;;;5.83;3.30;;;;;;;;;;5051713;28;20037;-67
2023/01/17 09:30:00;;;;;;;6.78;4.18;;;;;;;;;;5057897;28;20287;-69
2023/01/17 09:32:25;;;;;;;6.30;3.20;;;;;;;;;;5062018;28;20371;-64
2023/01/17 09:34:50;;;;;;;4.90;3.50;;;;;;;;;;5058907;28;20079;-66
2023/01/17 09:37:16;;;;;;;7.40;3.90;;;;;;;;;;5068620;28;20318;-69
2023/01/17 09:39:41;;;;;;;5.27;3.73;;;;;;;;;;5036840;28;20283;-67
2023/01/17 09:42:22;;;;;;;5.70;3.57;;;;;;;;;;5068329;28;20636;-62
2023/01/17 09:44:48;;;;;;;5.47;3.50;;;;;;;;;;5073475;28;20797;-71
2023/01/17 09:47:33;;;;;;;5.10;3.58;;;;;;;;;;5050669;28;20020;-68
2023/01/17 09:50:01;;;;;;;4.95;3.13;;;;;;;;;;5052074;28;20043;-68
2023/01/17 09:52:27;;;;;;;4.13;3.10;;;;;;;;;;5042241;28;20064;-64
2023/01/17 09:54:52;;;;;;;4.77;3.23;;;;;;;;;;5043693;28;20532;-65
2023/01/17 09:57:37;;;;;;;6.87;3.20;;;;;;;;;;5058707;28;20276;-62
2023/01/17 10:00:02;;;;;;;5.85;3.22;;;;;;;;;;5054321;28;20044;-65
2023/01/17 10:02:27;;;;;;;5.23;2.97;;;;;;;;;;5062751;28;20092;-67
2023/01/17 10:05:02;;;;;;;3.67;2.10;;;;;;;;;;5056260;28;20299;-67
2023/01/17 10:07:46;;;;;;;4.35;1.98;;;;;;;;;;5066269;28;20523;-65
2023/01/17 10:10:11;;;;;;;5.30;2.50;;;;;;;;;;5062549;28;20649;-56
2023/01/17 10:13:02;;;;;;;4.33;2.30;;;;;;;;;;5059409;28;20045;-61
2023/01/17 10:15:33;;;;;;;5.82;2.65;;;;;;;;;;5033517;28;20044;-66
2023/01/17 10:18:18;;;;;;;5.82;2.53;;;;;;;;;;5063709;28;20040;-67
2023/01/17 10:20:49;;;;;;;5.53;2.97;;;;;;;;;;5063337;28;20055;-68
2023/01/17 10:23:17;;;;;;;4.43;2.40;;;;;;;;;;5060655;28;20142;-66
2023/01/17 10:25:45;;;;;;;3.92;2.42;;;;;;;;;;5065005;28;20080;-70
2023/01/17 10:28:15;;;;;;;4.72;2.20;;;;;;;;;;5059609;28;20052;-68
2023/01/17 10:30:44;;;;;;;4.25;2.30;;;;;;;;;;5061700;28;20043;-63
2023/01/17 10:33:19;;;;;;;3.55;2.35;;;;;;;;;;5066942;28;20032;-61
2023/01/17 10:35:52;;;;;;;5.30;2.20;;;;;;;;;;5052056;28;20123;-64
2023/01/17 10:38:17;;;;;;;4.20;2.30;;;;;;;;;;5062137;28;20217;-72
2023/01/17 10:40:50;;;;;;;6.70;2.57;;;;;;;;;;5057194;28;20204;-65
2023/01/17 10:43:19;;;;;;;3.28;2.20;;;;;;;;;;5055883;28;21113;-65
2023/01/17 10:45:50;;;;;;;4.00;2.28;;;;;;;;;;5072491;28;20043;-69
2023/01/17 10:48:17;;;;;;;3.92;2.20;;;;;;;;;;5068251;28;20555;-62
2023/01/17 10:50:46;;;;;;;4.68;2.40;;;;;;;;;;5070049;28;20036;-71
2023/01/17 10:53:15;;;;;;;4.18;1.90;;;;;;;;;;5029707;28;20058;-63
2023/01/17 10:55:44;;;;;;;3.58;2.05;;;;;;;;;;5039797;28;20584;-66
2023/01/17 10:58:12;;;;;;;4.57;2.28;;;;;;;;;;5037867;28;20029;-65
2023/01/17 11:00:38;;;;;;;4.20;2.33;;;;;;;;;;5022121;28;20103;-69
2023/01/17 11:03:04;;;;;;;5.05;2.47;;;;;;;;;;5060088;28;20041;-67
2023/01/17 11:05:29;;;;;;;5.87;2.50;;;;;;;;;;5044009;28;20072;-65
2023/01/17 11:08:12;;;;;;;4.22;2.25;;;;;;;;;;5042816;28;20418;-70
2023/01/17 11:10:41;;;;;;;3.63;2.10;;;;;;;;;;5044400;28;20497;-63
2023/01/17 11:13:19;;;;;;;4.68;2.13;;;;;;;;;;5043200;28;20064;-61
2023/01/17 11:15:46;;;;;;;3.53;1.90;;;;;;;;;;5039029;28;20116;-69
2023/01/17 11:18:15;;;;;;;5.80;2.10;;;;;;;;;;5025720;28;20158;-65
2023/01/17 11:20:41;;;;;;;4.18;2.28;;;;;;;;;;5034721;28;20032;-63
2023/01/17 11:23:07;;;;;;;3.17;1.90;;;;;;;;;;5040129;28;20021;-62
2023/01/17 11:25:33;;;;;;;6.00;2.00;;;;;;;;;;5045460;28;20048;-68
2023/01/17 11:28:25;;;;;;;5.18;2.00;;;;;;;;;;5045165;28;20049;-64
2023/01/17 11:30:51;;;;;;;3.60;2.10;;;;;;;;;;5032202;28;20557;-71
2023/01/17 11:33:54;;;;;;;3.75;1.98;;;;;;;;;;5047096;28;20069;-66
2023/01/17 11:36:23;;;;;;;4.45;2.47;;;;;;;;;;5025637;28;20092;-65
2023/01/17 11:38:58;;;;;;;3.40;2.00;;;;;;;;;;5034505;28;20064;-67
2023/01/17 11:41:24;;;;;;;3.60;1.92;;;;;;;;;;5037726;28;20029;-67
2023/01/17 11:43:53;;;;;;;3.70;1.90;;;;;;;;;;5047654;28;20424;-60
2023/01/17 11:46:22;;;;;;;4.63;2.10;;;;;;;;;;5036043;28;20033;-63
2023/01/17 11:48:52;;;;;;;5.35;2.05;;;;;;;;;;5060151;28;20221;-67
2023/01/17 11:51:30;;;;;;;4.55;2.00;;;;;;;;;;5042282;28;20562;-67
2023/01/17 11:54:16;;;;;;;3.17;1.90;;;;;;;;;;5020617;28;20062;-65
2023/01/17 11:56:44;;;;;;;4.15;1.90;;;;;;;;;;5013675;28;20038;-61
2023/01/17 11:59:25;;;;;;;3.80;2.00;;;;;;;;;;5023289;28;20064;-65
2023/01/17 12:02:03;;;;;;;5.78;2.15;;;;;;;;;;5024708;28;20037;-61
2023/01/17 12:04:29;;;;;;;2.92;1.90;;;;;;;;;;5011951;28;20041;-68
2023/01/17 12:07:13;;;;;;;2.88;1.88;;;;;;;;;;5027188;28;20121;-59
2023/01/17 12:09:41;;;;;;;2.72;1.60;;;;;;;;;;5025519;28;20045;-70
2023/01/17 12:14:56;;;;;;;3.45;1.30;;;;;;;;;;5024148;28;20043;-74
2023/01/17 12:17:25;;;;;;;1.90;0.80;;;;;;;;;;5015159;28;20117;-66
2023/01/17 12:20:09;;;;;;;1.75;0.93;;;;;;;;;;5036193;28;20297;-62
2023/01/17 12:22:34;;;;;;;1.40;0.57;;;;;;;;;;5036324;28;20045;-66
2023/01/17 12:25:05;;;;;;;2.60;0.57;;;;;;;;;;5042744;28;21246;-72
2023/01/17 12:27:43;;;;;;;3.35;0.70;;;;;;;;;;5019176;28;20358;-61
2023/01/17 12:30:23;;;;;;;2.45;0.63;;;;;;;;;;5010763;28;20509;-67
2023/01/17 12:32:58;;;;;;;1.70;0.63;;;;;;;;;;5007650;28;20033;-75
2023/01/17 12:35:28;;;;;;;1.75;0.70;;;;;;;;;;5023818;28;20026;-70
2023/01/17 12:37:55;;;;;;;1.90;1.00;;;;;;;;;;5025593;28;20529;-65
2023/01/17 12:40:23;;;;;;;1.92;0.70;;;;;;;;;;5028017;28;20017;-65
2023/01/17 12:42:50;;;;;;;1.00;0.55;;;;;;;;;;5009295;28;20164;-69
2023/01/17 12:45:23;;;;;;;1.50;0.60;;;;;;;;;;5027259;28;20033;-64
2023/01/17 12:47:50;;;;;;;1.60;0.70;;;;;;;;;;5027700;28;20037;-68
2023/01/17 12:50:34;;;;;;;1.42;0.60;;;;;;;;;;5033445;28;20136;-64
2023/01/17 12:53:15;;;;;;;1.83;0.90;;;;;;;;;;5037024;28;20048;-72
2023/01/17 12:55:46;;;;;;;2.30;0.60;;;;;;;;;;5058410;28;20548;-64
2023/01/17 12:58:15;;;;;;;1.83;0.80;;;;;;;;;;5056104;28;20435;-69
2023/01/17 13:00:40;;;;;;;1.08;0.70;;;;;;;;;;5051463;28;20064;-65
2023/01/17 13:03:08;;;;;;;1.27;0.67;;;;;;;;;;5050839;28;20072;-67
2023/01/17 13:05:47;;;;;;;1.05;0.57;;;;;;;;;;5056049;28;20347;-68
2023/01/17 13:08:20;;;;;;;1.42;0.70;;;;;;;;;;5073176;28;20056;-71
2023/01/17 13:10:56;;;;;;;2.45;0.65;;;;;;;;;;5048713;28;20408;-59
2023/01/17 13:13:28;;;;;;;1.33;0.70;;;;;;;;;;5031792;28;20047;-64
2023/01/17 13:15:57;;;;;;;1.23;0.70;;;;;;;;;;5050804;28;20044;-72
2023/01/17 13:18:24;;;;;;;1.45;0.90;;;;;;;;;;5051988;28;20037;-67
2023/01/17 13:21:04;;;;;;;1.67;0.73;;;;;;;;;;5046264;28;20542;-61
2023/01/17 13:23:48;;;;;;;1.20;0.63;;;;;;;;;;5049807;28;20045;-64
2023/01/17 13:26:26;;;;;;;1.70;0.50;;;;;;;;;;5049348;28;20055;-73
2023/01/17 13:29:10;;;;;;;0.90;0.63;;;;;;;;;;5032849;28;20044;-64
2023/01/17 13:31:48;;;;;;;1.15;0.73;;;;;;;;;;5055679;28;20043;-62
2023/01/17 13:34:23;;;;;;;1.27;0.60;;;;;;;;;;5033112;28;20055;-59
2023/01/17 13:37:00;;;;;;;2.53;0.80;;;;;;;;;;5048546;28;20521;-68
2023/01/17 13:39:34;;;;;;;1.40;0.70;;;;;;;;;;5043634;28;20040;-65
2023/01/17 13:42:19;;;;;;;2.38;0.68;;;;;;;;;;5050305;28;20479;-64
2023/01/17 13:44:44;;;;;;;3.15;1.00;;;;;;;;;;5061609;28;20037;-72
2023/01/17 13:47:10;;;;;;;1.80;0.73;;;;;;;;;;5047914;28;20033;-68
2023/01/17 13:49:48;;;;;;;3.25;1.73;;;;;;;;;;5047538;28;20353;-70
2023/01/17 13:52:19;;;;;;;2.08;0.85;;;;;;;;;;5054884;28;20036;-58
2023/01/17 13:54:45;;;;;;;2.03;0.85;;;;;;;;;;5052240;28;20193;-70
2023/01/17 13:57:31;;;;;;;2.50;0.90;;;;;;;;;;5022599;28;20107;-68
2023/01/17 14:00:22;;;;;;;1.85;1.10;;;;;;;;;;5058168;28;20068;-67
2023/01/17 14:02:48;;;;;;;2.00;0.88;;;;;;;;;;5067658;28;20036;-75
2023/01/17 14:05:20;;;;;;;2.35;0.90;;;;;;;;;;5037663;28;20448;-68
2023/01/17 14:07:48;;;;;;;1.50;0.90;;;;;;;;;;5062659;28;20029;-63
2023/01/17 14:10:32;;;;;;;2.25;1.00;;;;;;;;;;5050093;28;20029;-68
2023/01/17 14:12:58;;;;;;;1.45;0.80;;;;;;;;;;5041374;28;20044;-62
2023/01/17 14:15:27;;;;;;;2.40;0.97;;;;;;;;;;5034242;28;20417;-71
2023/01/17 14:17:59;;;;;;;3.65;0.90;;;;;;;;;;5048148;28;20283;-67
2023/01/17 14:20:27;;;;;;;1.88;0.73;;;;;;;;;;5049934;28;20140;-63
2023/01/17 14:22:56;;;;;;;1.80;0.90;;;;;;;;;;5066059;28;20052;-71
2023/01/17 14:25:23;;;;;;;1.10;0.70;;;;;;;;;;5050060;28;20568;-67
2023/01/17 14:27:49;;;;;;;1.85;1.02;;;;;;;;;;5055999;28;20032;-63
2023/01/17 14:30:23;;;;;;;2.10;0.98;;;;;;;;;;5060345;28;20408;-66
2023/01/17 14:32:57;;;;;;;1.50;0.90;;;;;;;;;;5048046;28;20120;-65
2023/01/17 14:35:23;;;;;;;2.75;0.90;;;;;;;;;;5057415;28;20040;-64
2023/01/17 14:37:49;;;;;;;1.83;0.82;;;;;;;;;;5050487;28;20029;-66
2023/01/17 14:40:19;;;;;;;2.85;1.10;;;;;;;;;;5045267;28;20462;-71
2023/01/17 14:42:44;;;;;;;2.15;1.20;;;;;;;;;;5047630;28;20108;-64
2023/01/17 14:45:10;;;;;;;2.17;0.95;;;;;;;;;;5029234;28;20835;-73
2023/01/17 14:47:38;;;;;;;2.72;1.00;;;;;;;;;;5034543;28;20222;-75
2023/01/17 14:50:10;;;;;;;1.42;0.93;;;;;;;;;;5068362;28;20055;-73
2023/01/17 14:52:35;;;;;;;1.83;1.20;;;;;;;;;;5059370;28;20746;-72
2023/01/17 14:55:03;;;;;;;1.63;1.10;;;;;;;;;;5069263;28;20044;-66
2023/01/17 14:57:28;;;;;;;1.75;1.08;;;;;;;;;;5074700;28;20367;-66
2023/01/17 15:00:12;;;;;;;2.00;1.00;;;;;;;;;;5066754;28;20103;-70
2023/01/17 15:02:43;;;;;;;1.52;1.10;;;;;;;;;;5066181;28;20840;-59
2023/01/17 15:05:13;;;;;;;2.88;1.25;;;;;;;;;;5049006;28;20032;-67
2023/01/17 15:07:38;;;;;;;1.97;1.20;;;;;;;;;;5067370;28;20104;-59
2023/01/17 15:10:04;;;;;;;1.58;0.82;;;;;;;;;;5055299;28;20111;-65
2023/01/17 15:12:30;;;;;;;1.60;1.10;;;;;;;;;;5067418;28;20063;-71
2023/01/17 15:14:57;;;;;;;1.95;1.10;;;;;;;;;;5072265;28;20472;-66
2023/01/17 15:17:25;;;;;;;1.90;1.10;;;;;;;;;;5070129;28;20044;-65
2023/01/17 15:19:52;;;;;;;2.42;1.08;;;;;;;;;;5062464;28;20104;-69
2023/01/17 15:22:18;;;;;;;1.90;0.98;;;;;;;;;;5043171;28;20040;-72
2023/01/17 15:24:46;;;;;;;1.08;0.80;;;;;;;;;;5049362;28;20075;-72
2023/01/17 15:27:12;;;;;;;1.65;0.90;;;;;;;;;;5046859;28;20044;-58
2023/01/17 15:29:38;;;;;;;2.85;1.00;;;;;;;;;;5056412;28;25945;-66
2023/01/17 15:32:04;;;;;;;1.45;0.93;;;;;;;;;;5046948;28;20102;-63
2023/01/17 15:34:32;;;;;;;1.63;0.90;;;;;;;;;;5051653;28;20416;-65
2023/01/17 15:37:04;;;;;;;1.45;0.80;;;;;;;;;;5055264;28;20053;-72
2023/01/17 15:39:33;;;;;;;2.28;1.00;;;;;;;;;;5036351;28;20484;-75
2023/01/17 15:42:17;;;;;;;1.90;1.05;;;;;;;;;;5047049;28;20149;-70
2023/01/17 15:44:42;;;;;;;1.63;0.88;;;;;;;;;;5047606;28;20058;-68
2023/01/17 15:47:47;;;;;;;1.73;1.00;;;;;;;;;;5047626;28;20025;-75
2023/01/17 15:50:19;;;;;;;2.00;1.10;;;;;;;;;;4982575;28;20065;-67
2023/01/17 15:52:48;;;;;;;2.53;1.15;;;;;;;;;;4985768;28;20039;-71
2023/01/17 15:55:13;;;;;;;1.58;1.00;;;;;;;;;;5000891;28;20037;-65
2023/01/17 15:57:38;;;;;;;2.08;1.08;;;;;;;;;;5056985;28;20033;-65
2023/01/17 16:00:05;;;;;;;1.87;0.87;;;;;;;;;;5041427;28;20116;-63
2023/01/17 16:02:58;;;;;;;3.58;1.00;;;;;;;;;;5046318;28;20295;-73
2023/01/17 16:05:23;;;;;;;5.78;1.65;;;;;;;;;;5050336;28;20442;-62
2023/01/17 16:08:05;;;;;;;11.73;1.80;;;;;;;;;;5037980;28;20111;-69
2023/01/17 16:10:37;;;;;;;2.78;1.10;;;;;;;;;;5046562;28;20036;-67
2023/01/17 16:13:03;;;;;;;5.65;1.30;;;;;;;;;;5045076;28;20044;-63